Hai Hua — XUDB9 — position and weather

sailwx.info

Track history (hours):
 
Tides and Currents Weather Stations Pressure Air Temp Water Temp Dewpoint Dewpoint Depression Visibility Wind Speed Wind Dir Waves Ship Positions

Hai Hua

Last reported at 2014-Sep-29 04:28 UTC. Time now 2014-Oct-02 10:31 UTC.
Position N 34°06' E 134°42'.

Length 69 m; draft 3.5 m.

Type: Cargo ship. MMSI: 515171000.

Date/timePositionNaut miles runAvg speedWind from/ knotsBaromVisibWave heightAir tempDewpointWater temp
2014-Sep-29 04:28N 34°06' E 134°42'  
2014-Sep-22 08:33N 40°17' E 122°03'2 1.9
2014-Sep-22 07:33N 40°17' E 122°06'0 0.0
2014-Sep-22 06:33N 40°17' E 122°06'0 0.0
2014-Sep-22 05:33N 40°17' E 122°06'0 0.0
2014-Sep-22 04:33N 40°17' E 122°06'0 0.0
2014-Sep-22 03:33N 40°17' E 122°06'0 0.0
2014-Sep-22 02:33N 40°17' E 122°06'0 0.0
2014-Sep-22 01:33N 40°17' E 122°06'0 0.0
2014-Sep-22 00:33N 40°17' E 122°06'0 0.0
2014-Sep-21 23:33N 40°17' E 122°06'0 0.0
2014-Sep-21 22:33N 40°17' E 122°06'0 0.0
2014-Sep-21 21:33N 40°17' E 122°06'0 0.0
2014-Sep-21 20:33N 40°17' E 122°06'0 0.0
2014-Sep-21 19:33N 40°17' E 122°06'0 0.0
2014-Sep-21 18:27N 40°17' E 122°06'0 0.0
2014-Sep-21 17:27N 40°17' E 122°06'0 0.1
2014-Sep-21 16:33N 40°17' E 122°06'0 0.0
2014-Sep-21 15:33N 40°17' E 122°06'0 0.0
2014-Sep-21 14:33N 40°17' E 122°06'0 0.0
2014-Sep-21 13:33N 40°17' E 122°06'0 0.0
2014-Sep-21 12:21N 40°17' E 122°06'0 0.1
2014-Sep-21 11:27N 40°17' E 122°06'0 0.1
2014-Sep-21 10:33N 40°17' E 122°06'5 5.3
2014-Sep-21 09:33N 40°21' E 122°00'0 0.2
2014-Sep-21 08:30N 40°21' E 122°01'0 0.0
2014-Sep-21 07:12N 40°21' E 122°01'0 0.0
2014-Sep-21 06:30N 40°21' E 122°01'0 0.0
2014-Sep-21 05:30N 40°21' E 122°01'0 0.0
2014-Sep-21 02:30N 40°21' E 122°01'0 0.1
2014-Sep-21 01:18N 40°21' E 122°00'0 0.0
2014-Sep-21 00:18N 40°21' E 122°00'0 0.0
2014-Sep-20 23:30N 40°21' E 122°00'0 0.0
2014-Sep-20 22:30N 40°21' E 122°00'0 0.0
2014-Sep-20 21:24N 40°21' E 122°00'0 0.0
2014-Sep-20 20:30N 40°21' E 122°00'0 0.0
2014-Sep-20 19:12N 40°21' E 122°01'0 0.0
2014-Sep-20 18:06N 40°21' E 122°01'0 0.0
2014-Sep-20 17:30N 40°21' E 122°01'0 0.0
2014-Sep-20 16:30N 40°21' E 122°01'0 0.0
2014-Sep-20 15:24N 40°21' E 122°01'0 0.0
2014-Sep-20 14:30N 40°21' E 122°01'0 0.0
2014-Sep-20 13:24N 40°21' E 122°00'0 0.0
2014-Sep-20 12:24N 40°21' E 122°01'0 0.0
2014-Sep-20 11:24N 40°21' E 122°01'0 0.1
2014-Sep-20 10:30N 40°21' E 122°00'0 0.0
2014-Sep-20 09:24N 40°21' E 122°00'0 0.0
2014-Sep-20 08:24N 40°21' E 122°00'2 2.1
2014-Sep-20 07:32N 40°20' E 121°58'112 8.0
2014-Sep-19 17:26N 38°32' E 121°23'11 9.4
2014-Sep-19 16:19N 38°33' E 121°36'6 8.0
2014-Sep-19 15:33N 38°38' E 121°41'10 9.9
2014-Sep-19 14:33N 38°48' E 121°43'9 7.7
2014-Sep-19 13:19N 38°57' E 121°42'4 1.0
2014-Sep-19 09:12N 38°56' E 121°36'0 0.1
2014-Sep-19 08:24N 38°56' E 121°37'0 0.1
2014-Sep-19 07:30N 38°56' E 121°36'  
Track history (hours):
 
Tides and Currents Weather Stations Pressure Air Temp Water Temp Dewpoint Dewpoint Depression Visibility Wind Speed Wind Dir Waves Ship Positions

Hai Hua

Last reported at 2014-Sep-29 04:28 UTC. Time now 2014-Oct-02 10:31 UTC.
Position N 34°06' E 134°42'.

Length 69 m; draft 3.5 m.

Type: Cargo ship. MMSI: 515171000.

Date/timePositionNaut miles runAvg speedWind from/ knotsBaromVisibWave heightAir tempDewpointWater temp
2014-Sep-29 04:28N 34°06' E 134°42'  
2014-Sep-22 08:33N 40°17' E 122°03'2 1.9
2014-Sep-22 07:33N 40°17' E 122°06'0 0.0
2014-Sep-22 06:33N 40°17' E 122°06'0 0.0
2014-Sep-22 05:33N 40°17' E 122°06'0 0.0
2014-Sep-22 04:33N 40°17' E 122°06'0 0.0
2014-Sep-22 03:33N 40°17' E 122°06'0 0.0
2014-Sep-22 02:33N 40°17' E 122°06'0 0.0
2014-Sep-22 01:33N 40°17' E 122°06'0 0.0
2014-Sep-22 00:33N 40°17' E 122°06'0 0.0
2014-Sep-21 23:33N 40°17' E 122°06'0 0.0
2014-Sep-21 22:33N 40°17' E 122°06'0 0.0
2014-Sep-21 21:33N 40°17' E 122°06'0 0.0
2014-Sep-21 20:33N 40°17' E 122°06'0 0.0
2014-Sep-21 19:33N 40°17' E 122°06'0 0.0
2014-Sep-21 18:27N 40°17' E 122°06'0 0.0
2014-Sep-21 17:27N 40°17' E 122°06'0 0.1
2014-Sep-21 16:33N 40°17' E 122°06'0 0.0
2014-Sep-21 15:33N 40°17' E 122°06'0 0.0
2014-Sep-21 14:33N 40°17' E 122°06'0 0.0
2014-Sep-21 13:33N 40°17' E 122°06'0 0.0
2014-Sep-21 12:21N 40°17' E 122°06'0 0.1
2014-Sep-21 11:27N 40°17' E 122°06'0 0.1
2014-Sep-21 10:33N 40°17' E 122°06'5 5.3
2014-Sep-21 09:33N 40°21' E 122°00'0 0.2
2014-Sep-21 08:30N 40°21' E 122°01'0 0.0
2014-Sep-21 07:12N 40°21' E 122°01'0 0.0
2014-Sep-21 06:30N 40°21' E 122°01'0 0.0
2014-Sep-21 05:30N 40°21' E 122°01'0 0.0
2014-Sep-21 02:30N 40°21' E 122°01'0 0.1
2014-Sep-21 01:18N 40°21' E 122°00'0 0.0
2014-Sep-21 00:18N 40°21' E 122°00'0 0.0
2014-Sep-20 23:30N 40°21' E 122°00'0 0.0
2014-Sep-20 22:30N 40°21' E 122°00'0 0.0
2014-Sep-20 21:24N 40°21' E 122°00'0 0.0
2014-Sep-20 20:30N 40°21' E 122°00'0 0.0
2014-Sep-20 19:12N 40°21' E 122°01'0 0.0
2014-Sep-20 18:06N 40°21' E 122°01'0 0.0
2014-Sep-20 17:30N 40°21' E 122°01'0 0.0
2014-Sep-20 16:30N 40°21' E 122°01'0 0.0
2014-Sep-20 15:24N 40°21' E 122°01'0 0.0
2014-Sep-20 14:30N 40°21' E 122°01'0 0.0
2014-Sep-20 13:24N 40°21' E 122°00'0 0.0
2014-Sep-20 12:24N 40°21' E 122°01'0 0.0
2014-Sep-20 11:24N 40°21' E 122°01'0 0.1
2014-Sep-20 10:30N 40°21' E 122°00'0 0.0
2014-Sep-20 09:24N 40°21' E 122°00'0 0.0
2014-Sep-20 08:24N 40°21' E 122°00'2 2.1
2014-Sep-20 07:32N 40°20' E 121°58'112 8.0
2014-Sep-19 17:26N 38°32' E 121°23'11 9.4
2014-Sep-19 16:19N 38°33' E 121°36'6 8.0
2014-Sep-19 15:33N 38°38' E 121°41'10 9.9
2014-Sep-19 14:33N 38°48' E 121°43'9 7.7
2014-Sep-19 13:19N 38°57' E 121°42'4 1.0
2014-Sep-19 09:12N 38°56' E 121°36'0 0.1
2014-Sep-19 08:24N 38°56' E 121°37'0 0.1
2014-Sep-19 07:30N 38°56' E 121°36'  

Dump ship's entire track history